Airfield :
LOGIN :

Register | Disclaimer

   EN    FR    IT 

 










Legend :    VFR   Marginal VFR   IFR   Intensive IFR   Very Intensive IFR
Visi :
Ceiling :
>= 8 km
>= 3000ft
5 to 8 km
1000 to 3000 ft
1500m to 5 km
500 to 1000 ft
800 to 1500m
200 to 500 ft
< 800m
< 200 ft
Symbols :   Thunderstorms  Fog  Heavy snow  Heavy precipitations  Wind > 20 kt
SIGMETs :     Misc.  Thunderstorms  Icing  Turbulence  Mountain Waves  Volcanic Ashes






- Airport Elevation : 202 ft
- IATA code : LGW


EGKK - London Gatwick

CURRENT METAR :
  • 290750Z 04011KT 9999 FEW031 12/05 Q1020

EXPIRED METARs :
  • 290720Z 01010KT 9999 FEW026 12/04 Q1020
  • 290650Z 34007KT 300V060 9999 FEW024 11/05 Q1020
  • 290620Z VRB07KT CAVOK 10/05 Q1020
  • 290550Z 33006KT 280V060 CAVOK 09/05 Q1020
  • 290520Z 31005KT 270V350 CAVOK 08/04 Q1021

TAF TAF EGKK
Valid from the 29 at 06:00 until the 30 at 12:00 UTC


290454Z 2906/3012 36009KT 9999 SCT045
PROB30
TEMPO 2909/2922 7000 SHRA
PROB30 3002/3006 8000
PROB30
TEMPO 3008/3012 7000 SHRA



MET'MAP, your aeronautical weather chart ! - Copyright ORBIFLY December 2007 - Disclaimer

ORBIFLY MET'MAP TEAM :

Programming & Development : Alexandra Zaïnal
Original concept : Baudouin d'Aumeries
Technical & hardware support : Manuel Goepfert
Assistance : Marc-Olivier Méhu

Contact : metmap@orbifly.com




SOURCES & CREDITS :

   NOAA